Benton Harbor, MI

12:00 AM EDT on March 28, 2015 (GMT -0400)
Bernice Riverview | | Change Station
CLOSE
Current Station
Personal Weather Station
Location: St. Joseph, MI
Elevation: 659 ft
Nearby Weather Stations

Elev 659 ft 42.10 °N, 86.47 °W | Updated 10 minutes ago

Clear
Clear
19.1 °F
Feels Like 14 °F
N
3.7
Wind Variable Wind from NE

Today
High -- | Low -- °F
--% Chance of Precip.
Yesterday
High -- | Low -- °F
Precip. -- in
7:35 AM 8:06 PM
First Quarter, 58% visible
Pressure 30.22 in
Visibility 10.0 miles
Clouds Clear
Windchill 14 °F
Dew Point 10 °F
Humidity 67%
Rainfall in
Snow Depth Not available.
UV 0 out of 12
Pollen 2.30 out of 12
Air Quality Not available.
Flu Activity Not available.
METAR KBEH 280353Z AUTO 01007KT 10SM CLR M06/M12 A3019 RMK AO2 SLP234 T10611122

More Conditions Fewer Conditions

Pressure 30.22 in
Visibility 10.0 miles
Clouds Clear
Windchill 14 °F
Dew Point 10 °F
Humidity 67%
Rainfall in
Snow Depth Not available.
UV 0 out of 12
Pollen 2.30 out of 12
Air Quality Not available.
Flu Activity Not available.
METAR KBEH 280353Z AUTO 01007KT 10SM CLR M06/M12 A3019 RMK AO2 SLP234 T10611122

More Conditions Fewer Conditions

10-Day Weather Forecast

Almanac

Astronomy

Mar. 28, 2015 Rise Set
Actual Time
Civil Twilight
Nautical Twilight
Astronomical Twilight
Moon
Length of Visible Light
Length of Day
Tomorrow will be .
, % of the Moon is Illuminated

Today's Extremes

State Highs State Lows

Community

WunderPhotos

Upload Photos

1,808,931 photos uploaded!

WunderBlogs® & News

Nearby

Air Quality

  Air Quality AQ Index Pollutant
Not available.

Snow Depth

Station Depth Elevation

Earthquake Activity

City Distance Mag. Time & Date
Minimum magnitude displayed is 2.5.

Coastal Water Temperatures

Place Temperature

Stations

Nearby Weather Stations

Station Location Temp. Windchill Dew Point Humidity Wind Precip. Elev Updated Type